Skip Navigation Links Skip Navigation Links

Current Weather

Leland, Ill.

For information only: do not use for flight planning or navigation.
Latest weather
Observation time Tuesday, September 28, 2021 5:35 AM CDT
Local time Tuesday, September 28, 2021 6:07 AM CDT
Flight conditions Marginal Visual Meteorological Conditions
Winds
Wind direction Northwest (310°)
Wind speed 10 mph
Wind gusting to 16 mph
Visibility 10 mi.
Sky condition
Ceiling 1,600 ft. overcast
Cloud layer overcast 1,600 ft.
Temperature 59°F
Dewpoint 50°F
Altimeter 30.08 in.Hg
Derived measurements
Relative humidity 72%
Density altitude 673 ft.
Remarks
Fully automated report.
Automated weather observing station with precipitation discriminator.
Present weather sensor not operating.
Precipitation sensor not operating.
METAR KE16 281035Z AUTO 31009G14KT 10SM OVC016 15/10 A3008 RMK AO2 PWINO PNO

Settings

Location code

InnerDrive.Weather 4.0.6770.0 Release CLR 4.0.30319.42000
Copyright ©2018 Inner Drive Technology. All rights reserved. Portions Copyright ©1986-2018 David Braverman.

Find weather

Site navigation


Skip Navigation Links

Place info

Page info

PayPal - The safer, easier way to pay online!

Return home.

Copyright ©2021 Inner Drive Technology. Purveyors of fine, hand-crafted computer software. Page printed 2021-09-28T11:07:49 UTC.